sensor_id;sensor_type;location;lat;lon;timestamp;P1;durP1;ratioP1;P2;durP2;ratioP2
26620;SDS011;14253;44.840;10.444;2023-06-22T00:01:17;14.23;;;8.80;;
26620;SDS011;14253;44.840;10.444;2023-06-22T00:03:43;16.35;;;8.43;;
26620;SDS011;14253;44.840;10.444;2023-06-22T00:06:09;16.55;;;9.10;;
26620;SDS011;14253;44.840;10.444;2023-06-22T00:08:35;11.30;;;8.32;;
26620;SDS011;14253;44.840;10.444;2023-06-22T00:11:01;11.00;;;7.60;;
26620;SDS011;14253;44.840;10.444;2023-06-22T00:13:26;13.75;;;8.38;;
26620;SDS011;14253;44.840;10.444;2023-06-22T00:15:52;15.60;;;8.90;;
26620;SDS011;14253;44.840;10.444;2023-06-22T00:18:18;15.07;;;9.40;;
26620;SDS011;14253;44.840;10.444;2023-06-22T00:20:45;13.80;;;8.90;;
26620;SDS011;14253;44.840;10.444;2023-06-22T00:23:12;13.82;;;8.18;;
26620;SDS011;14253;44.840;10.444;2023-06-22T00:25:39;13.05;;;7.82;;
26620;SDS011;14253;44.840;10.444;2023-06-22T00:28:07;9.98;;;7.32;;
26620;SDS011;14253;44.840;10.444;2023-06-22T00:30:34;11.85;;;7.75;;
26620;SDS011;14253;44.840;10.444;2023-06-22T00:33:00;13.80;;;7.63;;
26620;SDS011;14253;44.840;10.444;2023-06-22T00:35:26;11.10;;;7.28;;
26620;SDS011;14253;44.840;10.444;2023-06-22T00:37:59;14.15;;;7.90;;
26620;SDS011;14253;44.840;10.444;2023-06-22T00:40:26;9.53;;;7.77;;
26620;SDS011;14253;44.840;10.444;2023-06-22T00:42:53;10.95;;;8.77;;
26620;SDS011;14253;44.840;10.444;2023-06-22T00:45:20;15.68;;;8.55;;
26620;SDS011;14253;44.840;10.444;2023-06-22T00:47:52;13.90;;;8.38;;
26620;SDS011;14253;44.840;10.444;2023-06-22T00:50:21;11.38;;;8.35;;
26620;SDS011;14253;44.840;10.444;2023-06-22T00:52:53;16.08;;;9.15;;
26620;SDS011;14253;44.840;10.444;2023-06-22T00:55:24;15.10;;;8.38;;
26620;SDS011;14253;44.840;10.444;2023-06-22T00:57:53;18.60;;;9.70;;
26620;SDS011;14253;44.840;10.444;2023-06-22T01:00:23;15.38;;;9.57;;
26620;SDS011;14253;44.840;10.444;2023-06-22T01:02:50;11.07;;;9.07;;
26620;SDS011;14253;44.840;10.444;2023-06-22T01:05:18;14.32;;;8.02;;
26620;SDS011;14253;44.840;10.444;2023-06-22T01:12:52;11.85;;;9.50;;
26620;SDS011;14253;44.840;10.444;2023-06-22T01:15:27;18.30;;;10.95;;
26620;SDS011;14253;44.840;10.444;2023-06-22T01:17:56;12.07;;;10.18;;
26620;SDS011;14253;44.840;10.444;2023-06-22T01:20:24;16.55;;;10.68;;
26620;SDS011;14253;44.840;10.444;2023-06-22T01:25:26;16.55;;;11.43;;
26620;SDS011;14253;44.840;10.444;2023-06-22T01:28:20;16.08;;;9.98;;
26620;SDS011;14253;44.840;10.444;2023-06-22T01:30:56;17.63;;;10.98;;
26620;SDS011;14253;44.840;10.444;2023-06-22T01:33:33;16.00;;;11.35;;
26620;SDS011;14253;44.840;10.444;2023-06-22T01:36:02;16.10;;;10.43;;
26620;SDS011;14253;44.840;10.444;2023-06-22T01:38:30;12.77;;;8.88;;
26620;SDS011;14253;44.840;10.444;2023-06-22T01:40:57;11.98;;;8.60;;
26620;SDS011;14253;44.840;10.444;2023-06-22T01:43:25;16.05;;;7.55;;
26620;SDS011;14253;44.840;10.444;2023-06-22T01:45:54;11.80;;;7.63;;
26620;SDS011;14253;44.840;10.444;2023-06-22T01:48:22;12.55;;;7.28;;
26620;SDS011;14253;44.840;10.444;2023-06-22T01:50:49;10.55;;;7.05;;
26620;SDS011;14253;44.840;10.444;2023-06-22T01:53:16;11.63;;;6.85;;
26620;SDS011;14253;44.840;10.444;2023-06-22T01:55:42;12.35;;;6.35;;
26620;SDS011;14253;44.840;10.444;2023-06-22T01:58:08;11.52;;;6.30;;
26620;SDS011;14253;44.840;10.444;2023-06-22T02:00:38;10.32;;;6.53;;
26620;SDS011;14253;44.840;10.444;2023-06-22T02:03:10;15.63;;;6.72;;
26620;SDS011;14253;44.840;10.444;2023-06-22T02:05:46;10.95;;;6.30;;
26620;SDS011;14253;44.840;10.444;2023-06-22T02:08:28;14.23;;;7.50;;
26620;SDS011;14253;44.840;10.444;2023-06-22T02:10:58;12.82;;;7.45;;
26620;SDS011;14253;44.840;10.444;2023-06-22T02:13:26;14.20;;;7.70;;
26620;SDS011;14253;44.840;10.444;2023-06-22T02:15:52;16.00;;;7.57;;
26620;SDS011;14253;44.840;10.444;2023-06-22T02:18:19;15.68;;;7.65;;
26620;SDS011;14253;44.840;10.444;2023-06-22T02:20:45;12.00;;;9.02;;
26620;SDS011;14253;44.840;10.444;2023-06-22T02:23:11;11.18;;;8.63;;
26620;SDS011;14253;44.840;10.444;2023-06-22T02:25:37;16.63;;;8.95;;
26620;SDS011;14253;44.840;10.444;2023-06-22T02:28:04;14.00;;;9.13;;
26620;SDS011;14253;44.840;10.444;2023-06-22T02:30:31;19.42;;;10.48;;
26620;SDS011;14253;44.840;10.444;2023-06-22T02:32:58;18.92;;;9.60;;
26620;SDS011;14253;44.840;10.444;2023-06-22T02:35:25;12.98;;;9.48;;
26620;SDS011;14253;44.840;10.444;2023-06-22T02:37:52;14.85;;;9.00;;
26620;SDS011;14253;44.840;10.444;2023-06-22T02:40:18;14.57;;;10.05;;
26620;SDS011;14253;44.840;10.444;2023-06-22T02:42:44;13.98;;;9.60;;
26620;SDS011;14253;44.840;10.444;2023-06-22T02:45:10;13.90;;;9.85;;
26620;SDS011;14253;44.840;10.444;2023-06-22T02:47:36;17.50;;;10.32;;
26620;SDS011;14253;44.840;10.444;2023-06-22T02:50:02;18.00;;;9.98;;
26620;SDS011;14253;44.840;10.444;2023-06-22T02:52:31;13.70;;;9.45;;
26620;SDS011;14253;44.840;10.444;2023-06-22T02:54:57;16.52;;;9.50;;
26620;SDS011;14253;44.840;10.444;2023-06-22T02:57:24;19.63;;;9.43;;
26620;SDS011;14253;44.840;10.444;2023-06-22T02:59:50;12.82;;;8.65;;
26620;SDS011;14253;44.840;10.444;2023-06-22T03:02:16;13.32;;;8.07;;
26620;SDS011;14253;44.840;10.444;2023-06-22T03:04:43;10.60;;;8.95;;
26620;SDS011;14253;44.840;10.444;2023-06-22T03:07:09;14.90;;;8.15;;
26620;SDS011;14253;44.840;10.444;2023-06-22T03:09:35;12.57;;;8.82;;
26620;SDS011;14253;44.840;10.444;2023-06-22T03:12:01;18.92;;;9.32;;
26620;SDS011;14253;44.840;10.444;2023-06-22T03:14:36;15.23;;;9.38;;
26620;SDS011;14253;44.840;10.444;2023-06-22T03:17:04;13.13;;;9.70;;
26620;SDS011;14253;44.840;10.444;2023-06-22T03:19:30;18.20;;;11.02;;
26620;SDS011;14253;44.840;10.444;2023-06-22T03:22:00;12.98;;;9.93;;
26620;SDS011;14253;44.840;10.444;2023-06-22T03:24:26;21.42;;;10.35;;
26620;SDS011;14253;44.840;10.444;2023-06-22T03:26:55;15.40;;;11.13;;
26620;SDS011;14253;44.840;10.444;2023-06-22T03:29:22;17.27;;;11.20;;
26620;SDS011;14253;44.840;10.444;2023-06-22T03:31:49;17.75;;;10.27;;
26620;SDS011;14253;44.840;10.444;2023-06-22T03:34:16;22.55;;;12.15;;
26620;SDS011;14253;44.840;10.444;2023-06-22T03:36:42;17.27;;;11.73;;
26620;SDS011;14253;44.840;10.444;2023-06-22T03:39:10;13.10;;;11.07;;
26620;SDS011;14253;44.840;10.444;2023-06-22T03:41:36;16.08;;;11.88;;
26620;SDS011;14253;44.840;10.444;2023-06-22T03:44:02;19.08;;;12.15;;
26620;SDS011;14253;44.840;10.444;2023-06-22T03:46:28;16.00;;;11.23;;
26620;SDS011;14253;44.840;10.444;2023-06-22T03:48:54;14.18;;;10.63;;
26620;SDS011;14253;44.840;10.444;2023-06-22T03:51:20;17.45;;;11.77;;
26620;SDS011;14253;44.840;10.444;2023-06-22T03:53:46;23.52;;;12.68;;
26620;SDS011;14253;44.840;10.444;2023-06-22T03:56:13;21.65;;;12.25;;
26620;SDS011;14253;44.840;10.444;2023-06-22T03:58:45;21.17;;;11.50;;
26620;SDS011;14253;44.840;10.444;2023-06-22T04:01:11;17.52;;;11.77;;
26620;SDS011;14253;44.840;10.444;2023-06-22T04:03:40;13.85;;;10.98;;
26620;SDS011;14253;44.840;10.444;2023-06-22T04:06:06;21.15;;;11.88;;
26620;SDS011;14253;44.840;10.444;2023-06-22T04:08:32;20.45;;;12.40;;
26620;SDS011;14253;44.840;10.444;2023-06-22T04:10:58;17.45;;;12.63;;
26620;SDS011;14253;44.840;10.444;2023-06-22T04:13:24;15.25;;;10.75;;
26620;SDS011;14253;44.840;10.444;2023-06-22T04:15:50;17.98;;;11.68;;
26620;SDS011;14253;44.840;10.444;2023-06-22T04:18:16;17.40;;;12.05;;
26620;SDS011;14253;44.840;10.444;2023-06-22T04:20:42;18.17;;;11.82;;
26620;SDS011;14253;44.840;10.444;2023-06-22T04:23:12;16.65;;;11.10;;
26620;SDS011;14253;44.840;10.444;2023-06-22T04:25:39;20.23;;;12.32;;
26620;SDS011;14253;44.840;10.444;2023-06-22T04:28:05;12.52;;;11.00;;
26620;SDS011;14253;44.840;10.444;2023-06-22T04:30:37;18.08;;;11.63;;
26620;SDS011;14253;44.840;10.444;2023-06-22T04:33:14;17.60;;;10.70;;
26620;SDS011;14253;44.840;10.444;2023-06-22T04:35:40;14.90;;;10.68;;
26620;SDS011;14253;44.840;10.444;2023-06-22T04:38:07;17.38;;;11.32;;
26620;SDS011;14253;44.840;10.444;2023-06-22T04:40:33;18.73;;;12.02;;
26620;SDS011;14253;44.840;10.444;2023-06-22T04:42:59;16.45;;;12.02;;
26620;SDS011;14253;44.840;10.444;2023-06-22T04:45:28;18.08;;;11.30;;
26620;SDS011;14253;44.840;10.444;2023-06-22T04:47:56;17.10;;;10.77;;
26620;SDS011;14253;44.840;10.444;2023-06-22T04:50:23;17.25;;;9.63;;
26620;SDS011;14253;44.840;10.444;2023-06-22T04:52:49;13.05;;;8.82;;
26620;SDS011;14253;44.840;10.444;2023-06-22T04:55:16;14.10;;;8.65;;
26620;SDS011;14253;44.840;10.444;2023-06-22T04:57:44;12.07;;;7.50;;
26620;SDS011;14253;44.840;10.444;2023-06-22T05:00:16;14.85;;;7.90;;
26620;SDS011;14253;44.840;10.444;2023-06-22T05:02:45;11.30;;;7.05;;
26620;SDS011;14253;44.840;10.444;2023-06-22T05:05:12;11.05;;;7.10;;
26620;SDS011;14253;44.840;10.444;2023-06-22T05:07:39;8.57;;;6.78;;
26620;SDS011;14253;44.840;10.444;2023-06-22T05:10:10;11.38;;;7.07;;
26620;SDS011;14253;44.840;10.444;2023-06-22T05:12:37;14.13;;;7.13;;
26620;SDS011;14253;44.840;10.444;2023-06-22T05:15:05;13.13;;;7.43;;
26620;SDS011;14253;44.840;10.444;2023-06-22T05:17:32;18.52;;;7.10;;
26620;SDS011;14253;44.840;10.444;2023-06-22T05:19:58;12.85;;;6.80;;
26620;SDS011;14253;44.840;10.444;2023-06-22T05:22:24;18.23;;;8.00;;
26620;SDS011;14253;44.840;10.444;2023-06-22T05:24:50;12.13;;;7.32;;
26620;SDS011;14253;44.840;10.444;2023-06-22T05:27:16;11.25;;;7.25;;
26620;SDS011;14253;44.840;10.444;2023-06-22T05:29:42;14.90;;;8.05;;
26620;SDS011;14253;44.840;10.444;2023-06-22T05:32:08;13.13;;;6.53;;
26620;SDS011;14253;44.840;10.444;2023-06-22T05:34:34;9.40;;;6.57;;
26620;SDS011;14253;44.840;10.444;2023-06-22T05:37:01;11.20;;;7.50;;
26620;SDS011;14253;44.840;10.444;2023-06-22T05:39:27;14.80;;;8.52;;
26620;SDS011;14253;44.840;10.444;2023-06-22T05:41:53;9.20;;;7.10;;
26620;SDS011;14253;44.840;10.444;2023-06-22T05:44:19;12.70;;;8.55;;
26620;SDS011;14253;44.840;10.444;2023-06-22T05:46:45;12.43;;;9.13;;
26620;SDS011;14253;44.840;10.444;2023-06-22T05:49:13;10.32;;;7.57;;
26620;SDS011;14253;44.840;10.444;2023-06-22T05:51:40;12.35;;;8.32;;
26620;SDS011;14253;44.840;10.444;2023-06-22T05:54:06;12.90;;;9.32;;
26620;SDS011;14253;44.840;10.444;2023-06-22T05:56:34;13.00;;;8.02;;
26620;SDS011;14253;44.840;10.444;2023-06-22T05:59:00;12.20;;;9.25;;
26620;SDS011;14253;44.840;10.444;2023-06-22T06:01:26;15.20;;;9.27;;
26620;SDS011;14253;44.840;10.444;2023-06-22T06:03:52;14.25;;;9.32;;
26620;SDS011;14253;44.840;10.444;2023-06-22T06:06:18;13.00;;;9.82;;
26620;SDS011;14253;44.840;10.444;2023-06-22T06:08:54;15.65;;;10.10;;
26620;SDS011;14253;44.840;10.444;2023-06-22T06:11:20;17.52;;;10.73;;
26620;SDS011;14253;44.840;10.444;2023-06-22T06:13:47;14.15;;;9.63;;
26620;SDS011;14253;44.840;10.444;2023-06-22T06:16:12;17.80;;;9.98;;
26620;SDS011;14253;44.840;10.444;2023-06-22T06:18:38;14.80;;;8.45;;
26620;SDS011;14253;44.840;10.444;2023-06-22T06:21:04;12.40;;;9.05;;
26620;SDS011;14253;44.840;10.444;2023-06-22T06:23:31;15.93;;;8.20;;
26620;SDS011;14253;44.840;10.444;2023-06-22T06:25:57;20.45;;;10.40;;
26620;SDS011;14253;44.840;10.444;2023-06-22T06:28:24;14.65;;;9.38;;
26620;SDS011;14253;44.840;10.444;2023-06-22T06:30:50;19.65;;;9.05;;
26620;SDS011;14253;44.840;10.444;2023-06-22T06:33:17;16.25;;;8.90;;
26620;SDS011;14253;44.840;10.444;2023-06-22T06:35:43;13.68;;;8.32;;
26620;SDS011;14253;44.840;10.444;2023-06-22T06:38:09;9.85;;;8.20;;
26620;SDS011;14253;44.840;10.444;2023-06-22T06:40:35;13.85;;;8.48;;
26620;SDS011;14253;44.840;10.444;2023-06-22T06:43:01;13.82;;;8.43;;
26620;SDS011;14253;44.840;10.444;2023-06-22T06:45:27;13.55;;;7.57;;
26620;SDS011;14253;44.840;10.444;2023-06-22T06:47:56;12.38;;;7.65;;
26620;SDS011;14253;44.840;10.444;2023-06-22T06:50:22;14.05;;;6.72;;
26620;SDS011;14253;44.840;10.444;2023-06-22T06:52:48;9.90;;;7.38;;
26620;SDS011;14253;44.840;10.444;2023-06-22T06:55:15;11.45;;;8.95;;
26620;SDS011;14253;44.840;10.444;2023-06-22T06:57:42;14.25;;;7.13;;
26620;SDS011;14253;44.840;10.444;2023-06-22T07:00:09;12.85;;;7.40;;
26620;SDS011;14253;44.840;10.444;2023-06-22T07:02:41;14.55;;;7.15;;
26620;SDS011;14253;44.840;10.444;2023-06-22T07:05:11;12.43;;;6.75;;
26620;SDS011;14253;44.840;10.444;2023-06-22T07:07:38;14.30;;;7.70;;
26620;SDS011;14253;44.840;10.444;2023-06-22T07:10:04;10.05;;;5.82;;
26620;SDS011;14253;44.840;10.444;2023-06-22T07:12:31;14.30;;;6.85;;
26620;SDS011;14253;44.840;10.444;2023-06-22T07:15:04;10.50;;;5.55;;
26620;SDS011;14253;44.840;10.444;2023-06-22T07:17:33;16.75;;;5.50;;
26620;SDS011;14253;44.840;10.444;2023-06-22T07:20:00;11.68;;;5.53;;
26620;SDS011;14253;44.840;10.444;2023-06-22T07:22:26;12.98;;;5.85;;
26620;SDS011;14253;44.840;10.444;2023-06-22T07:24:52;10.38;;;5.80;;
26620;SDS011;14253;44.840;10.444;2023-06-22T07:27:18;9.65;;;4.65;;
26620;SDS011;14253;44.840;10.444;2023-06-22T07:29:45;11.40;;;5.70;;
26620;SDS011;14253;44.840;10.444;2023-06-22T07:32:11;11.43;;;5.88;;
26620;SDS011;14253;44.840;10.444;2023-06-22T07:34:37;11.23;;;5.95;;
26620;SDS011;14253;44.840;10.444;2023-06-22T07:37:03;11.20;;;6.22;;
26620;SDS011;14253;44.840;10.444;2023-06-22T07:39:30;12.93;;;6.32;;
26620;SDS011;14253;44.840;10.444;2023-06-22T07:41:56;12.40;;;5.65;;
26620;SDS011;14253;44.840;10.444;2023-06-22T07:44:22;11.13;;;5.63;;
26620;SDS011;14253;44.840;10.444;2023-06-22T07:46:48;10.43;;;5.40;;
26620;SDS011;14253;44.840;10.444;2023-06-22T07:49:13;9.98;;;5.30;;
26620;SDS011;14253;44.840;10.444;2023-06-22T07:51:39;12.07;;;5.18;;
26620;SDS011;14253;44.840;10.444;2023-06-22T07:54:05;13.55;;;5.88;;
26620;SDS011;14253;44.840;10.444;2023-06-22T07:56:32;11.50;;;6.03;;
26620;SDS011;14253;44.840;10.444;2023-06-22T07:58:58;11.70;;;5.95;;
26620;SDS011;14253;44.840;10.444;2023-06-22T08:01:26;8.05;;;4.90;;
26620;SDS011;14253;44.840;10.444;2023-06-22T08:03:52;8.75;;;4.85;;
26620;SDS011;14253;44.840;10.444;2023-06-22T08:06:17;10.82;;;5.45;;
26620;SDS011;14253;44.840;10.444;2023-06-22T08:08:43;15.23;;;5.65;;
26620;SDS011;14253;44.840;10.444;2023-06-22T08:11:13;14.20;;;5.15;;
26620;SDS011;14253;44.840;10.444;2023-06-22T08:13:39;10.68;;;4.70;;
26620;SDS011;14253;44.840;10.444;2023-06-22T08:16:05;9.35;;;4.97;;
26620;SDS011;14253;44.840;10.444;2023-06-22T08:18:32;11.50;;;5.15;;
26620;SDS011;14253;44.840;10.444;2023-06-22T08:20:58;11.15;;;5.57;;
26620;SDS011;14253;44.840;10.444;2023-06-22T08:23:24;13.85;;;5.60;;
26620;SDS011;14253;44.840;10.444;2023-06-22T08:25:50;11.38;;;5.95;;
26620;SDS011;14253;44.840;10.444;2023-06-22T08:28:16;8.57;;;5.18;;
26620;SDS011;14253;44.840;10.444;2023-06-22T08:30:42;12.23;;;5.72;;
26620;SDS011;14253;44.840;10.444;2023-06-22T08:33:08;10.63;;;6.25;;
26620;SDS011;14253;44.840;10.444;2023-06-22T08:35:34;22.52;;;6.68;;
26620;SDS011;14253;44.840;10.444;2023-06-22T08:38:00;13.25;;;6.30;;
26620;SDS011;14253;44.840;10.444;2023-06-22T08:40:27;11.98;;;6.72;;
26620;SDS011;14253;44.840;10.444;2023-06-22T08:42:54;8.95;;;5.78;;
26620;SDS011;14253;44.840;10.444;2023-06-22T08:45:20;14.50;;;7.00;;
26620;SDS011;14253;44.840;10.444;2023-06-22T08:47:46;13.13;;;7.70;;
26620;SDS011;14253;44.840;10.444;2023-06-22T08:50:12;12.25;;;6.82;;
26620;SDS011;14253;44.840;10.444;2023-06-22T08:52:39;14.10;;;6.63;;
26620;SDS011;14253;44.840;10.444;2023-06-22T08:55:08;14.93;;;7.47;;
26620;SDS011;14253;44.840;10.444;2023-06-22T08:57:35;16.98;;;8.30;;
26620;SDS011;14253;44.840;10.444;2023-06-22T09:00:05;16.83;;;8.93;;
26620;SDS011;14253;44.840;10.444;2023-06-22T09:02:40;13.80;;;8.40;;
26620;SDS011;14253;44.840;10.444;2023-06-22T09:05:06;9.95;;;7.88;;
26620;SDS011;14253;44.840;10.444;2023-06-22T09:07:32;13.20;;;8.18;;
26620;SDS011;14253;44.840;10.444;2023-06-22T09:09:59;12.55;;;7.95;;
26620;SDS011;14253;44.840;10.444;2023-06-22T09:12:25;12.48;;;7.80;;
26620;SDS011;14253;44.840;10.444;2023-06-22T09:14:52;19.35;;;8.18;;
26620;SDS011;14253;44.840;10.444;2023-06-22T09:17:19;17.52;;;8.75;;
26620;SDS011;14253;44.840;10.444;2023-06-22T09:19:45;17.20;;;8.52;;
26620;SDS011;14253;44.840;10.444;2023-06-22T09:22:11;21.50;;;8.18;;
26620;SDS011;14253;44.840;10.444;2023-06-22T09:24:37;14.43;;;8.73;;
26620;SDS011;14253;44.840;10.444;2023-06-22T09:27:03;11.77;;;7.65;;
26620;SDS011;14253;44.840;10.444;2023-06-22T09:29:29;15.38;;;7.32;;
26620;SDS011;14253;44.840;10.444;2023-06-22T09:31:58;13.02;;;7.60;;
26620;SDS011;14253;44.840;10.444;2023-06-22T09:34:27;10.60;;;7.13;;
26620;SDS011;14253;44.840;10.444;2023-06-22T09:36:53;11.07;;;6.10;;
26620;SDS011;14253;44.840;10.444;2023-06-22T09:39:20;15.20;;;6.55;;
26620;SDS011;14253;44.840;10.444;2023-06-22T09:41:46;13.63;;;6.28;;
26620;SDS011;14253;44.840;10.444;2023-06-22T09:44:12;11.43;;;6.55;;
26620;SDS011;14253;44.840;10.444;2023-06-22T09:46:38;13.68;;;6.47;;
26620;SDS011;14253;44.840;10.444;2023-06-22T09:49:04;12.73;;;7.40;;
26620;SDS011;14253;44.840;10.444;2023-06-22T09:51:30;17.85;;;7.78;;
26620;SDS011;14253;44.840;10.444;2023-06-22T09:53:57;14.35;;;7.20;;
26620;SDS011;14253;44.840;10.444;2023-06-22T09:56:23;13.80;;;6.65;;
26620;SDS011;14253;44.840;10.444;2023-06-22T09:58:49;13.93;;;6.63;;
26620;SDS011;14253;44.840;10.444;2023-06-22T10:01:17;14.23;;;6.28;;
26620;SDS011;14253;44.840;10.444;2023-06-22T10:03:43;12.95;;;6.35;;
26620;SDS011;14253;44.840;10.444;2023-06-22T10:06:09;10.68;;;6.88;;
26620;SDS011;14253;44.840;10.444;2023-06-22T10:08:36;10.70;;;6.03;;
26620;SDS011;14253;44.840;10.444;2023-06-22T10:11:02;15.90;;;5.75;;
26620;SDS011;14253;44.840;10.444;2023-06-22T10:13:29;10.10;;;5.00;;
26620;SDS011;14253;44.840;10.444;2023-06-22T10:15:55;10.23;;;5.45;;
26620;SDS011;14253;44.840;10.444;2023-06-22T10:18:21;16.08;;;5.85;;
26620;SDS011;14253;44.840;10.444;2023-06-22T10:20:48;8.20;;;5.05;;
26620;SDS011;14253;44.840;10.444;2023-06-22T10:23:17;12.32;;;5.25;;
26620;SDS011;14253;44.840;10.444;2023-06-22T10:25:44;9.63;;;4.97;;
26620;SDS011;14253;44.840;10.444;2023-06-22T10:28:10;13.77;;;6.30;;
26620;SDS011;14253;44.840;10.444;2023-06-22T10:30:38;7.75;;;5.47;;
26620;SDS011;14253;44.840;10.444;2023-06-22T10:33:07;9.48;;;5.63;;
26620;SDS011;14253;44.840;10.444;2023-06-22T10:35:37;10.95;;;4.80;;
26620;SDS011;14253;44.840;10.444;2023-06-22T10:38:03;13.35;;;5.47;;
26620;SDS011;14253;44.840;10.444;2023-06-22T10:40:29;9.55;;;5.60;;
26620;SDS011;14253;44.840;10.444;2023-06-22T10:42:55;15.65;;;6.45;;
26620;SDS011;14253;44.840;10.444;2023-06-22T10:45:21;8.55;;;5.28;;
26620;SDS011;14253;44.840;10.444;2023-06-22T10:47:47;7.82;;;5.22;;
26620;SDS011;14253;44.840;10.444;2023-06-22T10:50:13;13.55;;;5.93;;
26620;SDS011;14253;44.840;10.444;2023-06-22T10:52:40;18.00;;;5.43;;
26620;SDS011;14253;44.840;10.444;2023-06-22T10:55:07;12.20;;;4.82;;
26620;SDS011;14253;44.840;10.444;2023-06-22T10:57:34;10.95;;;5.63;;
26620;SDS011;14253;44.840;10.444;2023-06-22T11:00:00;9.30;;;5.15;;
26620;SDS011;14253;44.840;10.444;2023-06-22T11:02:26;9.32;;;5.88;;
26620;SDS011;14253;44.840;10.444;2023-06-22T11:04:53;9.52;;;5.45;;
26620;SDS011;14253;44.840;10.444;2023-06-22T11:07:19;10.75;;;4.55;;
26620;SDS011;14253;44.840;10.444;2023-06-22T11:09:45;8.18;;;5.50;;
26620;SDS011;14253;44.840;10.444;2023-06-22T11:12:11;9.23;;;5.65;;
26620;SDS011;14253;44.840;10.444;2023-06-22T11:14:38;12.05;;;5.85;;
26620;SDS011;14253;44.840;10.444;2023-06-22T11:17:04;15.27;;;5.65;;
26620;SDS011;14253;44.840;10.444;2023-06-22T11:19:30;9.60;;;6.15;;
26620;SDS011;14253;44.840;10.444;2023-06-22T11:21:56;11.23;;;5.47;;
26620;SDS011;14253;44.840;10.444;2023-06-22T11:24:22;16.13;;;6.00;;
26620;SDS011;14253;44.840;10.444;2023-06-22T11:26:48;14.68;;;6.28;;
26620;SDS011;14253;44.840;10.444;2023-06-22T11:29:14;12.63;;;6.22;;
26620;SDS011;14253;44.840;10.444;2023-06-22T11:31:40;17.65;;;6.03;;
26620;SDS011;14253;44.840;10.444;2023-06-22T11:34:08;12.75;;;5.43;;
26620;SDS011;14253;44.840;10.444;2023-06-22T11:36:34;11.52;;;5.97;;
26620;SDS011;14253;44.840;10.444;2023-06-22T11:39:00;11.65;;;6.13;;
26620;SDS011;14253;44.840;10.444;2023-06-22T11:41:27;11.88;;;6.45;;
26620;SDS011;14253;44.840;10.444;2023-06-22T11:43:53;13.73;;;6.35;;
26620;SDS011;14253;44.840;10.444;2023-06-22T11:46:19;9.35;;;6.32;;
26620;SDS011;14253;44.840;10.444;2023-06-22T11:48:45;15.55;;;7.05;;
26620;SDS011;14253;44.840;10.444;2023-06-22T11:51:11;17.55;;;6.10;;
26620;SDS011;14253;44.840;10.444;2023-06-22T11:53:37;15.57;;;5.80;;
26620;SDS011;14253;44.840;10.444;2023-06-22T11:56:03;13.80;;;5.88;;
26620;SDS011;14253;44.840;10.444;2023-06-22T11:58:29;13.25;;;6.03;;
26620;SDS011;14253;44.840;10.444;2023-06-22T12:00:55;13.77;;;5.72;;
26620;SDS011;14253;44.840;10.444;2023-06-22T12:03:20;10.52;;;6.05;;
26620;SDS011;14253;44.840;10.444;2023-06-22T12:05:47;9.77;;;6.03;;
26620;SDS011;14253;44.840;10.444;2023-06-22T12:08:13;14.13;;;5.65;;
26620;SDS011;14253;44.840;10.444;2023-06-22T12:10:39;9.52;;;5.60;;
26620;SDS011;14253;44.840;10.444;2023-06-22T12:13:05;10.65;;;5.70;;
26620;SDS011;14253;44.840;10.444;2023-06-22T12:15:31;11.85;;;5.90;;
26620;SDS011;14253;44.840;10.444;2023-06-22T12:17:57;11.00;;;6.10;;
26620;SDS011;14253;44.840;10.444;2023-06-22T12:20:23;12.75;;;6.10;;
26620;SDS011;14253;44.840;10.444;2023-06-22T12:22:49;9.75;;;5.40;;
26620;SDS011;14253;44.840;10.444;2023-06-22T12:25:16;10.95;;;5.80;;
26620;SDS011;14253;44.840;10.444;2023-06-22T12:27:42;9.85;;;6.03;;
26620;SDS011;14253;44.840;10.444;2023-06-22T12:30:08;9.63;;;5.97;;
26620;SDS011;14253;44.840;10.444;2023-06-22T12:32:35;11.90;;;5.90;;
26620;SDS011;14253;44.840;10.444;2023-06-22T12:35:01;12.63;;;6.22;;
26620;SDS011;14253;44.840;10.444;2023-06-22T12:37:27;12.60;;;6.43;;
26620;SDS011;14253;44.840;10.444;2023-06-22T12:39:53;14.23;;;6.68;;
26620;SDS011;14253;44.840;10.444;2023-06-22T12:42:20;12.75;;;6.63;;
26620;SDS011;14253;44.840;10.444;2023-06-22T12:44:46;11.75;;;6.63;;
26620;SDS011;14253;44.840;10.444;2023-06-22T12:47:12;14.00;;;6.50;;
26620;SDS011;14253;44.840;10.444;2023-06-22T12:49:38;12.32;;;6.55;;
26620;SDS011;14253;44.840;10.444;2023-06-22T12:52:10;9.05;;;5.82;;
26620;SDS011;14253;44.840;10.444;2023-06-22T12:54:36;15.20;;;6.35;;
26620;SDS011;14253;44.840;10.444;2023-06-22T12:57:02;12.20;;;6.60;;
26620;SDS011;14253;44.840;10.444;2023-06-22T12:59:29;16.15;;;5.85;;
26620;SDS011;14253;44.840;10.444;2023-06-22T13:01:55;12.20;;;6.72;;
26620;SDS011;14253;44.840;10.444;2023-06-22T13:04:21;15.65;;;6.47;;
26620;SDS011;14253;44.840;10.444;2023-06-22T13:06:47;14.77;;;6.85;;
26620;SDS011;14253;44.840;10.444;2023-06-22T13:09:13;13.10;;;5.95;;
26620;SDS011;14253;44.840;10.444;2023-06-22T13:11:40;8.35;;;6.40;;
26620;SDS011;14253;44.840;10.444;2023-06-22T13:14:06;12.35;;;6.15;;
26620;SDS011;14253;44.840;10.444;2023-06-22T13:16:32;19.38;;;7.03;;
26620;SDS011;14253;44.840;10.444;2023-06-22T13:18:58;12.00;;;7.07;;
26620;SDS011;14253;44.840;10.444;2023-06-22T13:21:24;15.52;;;6.70;;
26620;SDS011;14253;44.840;10.444;2023-06-22T13:23:50;13.00;;;7.07;;
26620;SDS011;14253;44.840;10.444;2023-06-22T13:26:16;10.25;;;5.88;;
26620;SDS011;14253;44.840;10.444;2023-06-22T13:28:42;14.23;;;6.90;;
26620;SDS011;14253;44.840;10.444;2023-06-22T13:31:08;12.98;;;5.88;;
26620;SDS011;14253;44.840;10.444;2023-06-22T13:33:34;12.35;;;6.00;;
26620;SDS011;14253;44.840;10.444;2023-06-22T13:36:00;14.75;;;5.85;;
26620;SDS011;14253;44.840;10.444;2023-06-22T13:38:28;11.32;;;6.20;;
26620;SDS011;14253;44.840;10.444;2023-06-22T13:40:56;11.57;;;6.45;;
26620;SDS011;14253;44.840;10.444;2023-06-22T13:43:23;14.90;;;6.40;;
26620;SDS011;14253;44.840;10.444;2023-06-22T13:45:49;11.50;;;5.75;;
26620;SDS011;14253;44.840;10.444;2023-06-22T13:48:15;8.95;;;5.72;;
26620;SDS011;14253;44.840;10.444;2023-06-22T13:50:41;13.77;;;6.80;;
26620;SDS011;14253;44.840;10.444;2023-06-22T13:53:08;12.70;;;6.72;;
26620;SDS011;14253;44.840;10.444;2023-06-22T13:55:34;15.73;;;6.50;;
26620;SDS011;14253;44.840;10.444;2023-06-22T13:57:59;15.15;;;7.25;;
26620;SDS011;14253;44.840;10.444;2023-06-22T14:00:25;12.27;;;6.63;;
26620;SDS011;14253;44.840;10.444;2023-06-22T14:02:53;11.52;;;7.10;;
26620;SDS011;14253;44.840;10.444;2023-06-22T14:05:20;13.98;;;8.57;;
26620;SDS011;14253;44.840;10.444;2023-06-22T14:07:46;15.93;;;7.43;;
26620;SDS011;14253;44.840;10.444;2023-06-22T14:10:11;10.90;;;6.68;;
26620;SDS011;14253;44.840;10.444;2023-06-22T14:12:38;10.55;;;7.55;;
26620;SDS011;14253;44.840;10.444;2023-06-22T14:15:04;8.30;;;6.47;;
26620;SDS011;14253;44.840;10.444;2023-06-22T14:17:30;12.52;;;7.05;;
26620;SDS011;14253;44.840;10.444;2023-06-22T14:19:56;13.98;;;7.32;;
26620;SDS011;14253;44.840;10.444;2023-06-22T14:22:22;12.00;;;6.43;;
26620;SDS011;14253;44.840;10.444;2023-06-22T14:24:49;12.32;;;6.88;;
26620;SDS011;14253;44.840;10.444;2023-06-22T14:27:15;10.57;;;6.65;;